Chihuahua, Texas
Current Conditions -  °F | °C
As of 2:53 PM on Wednesday 26 Nov 2014 (Local Time) from KMFE Reporting Station
Clear Clear  
Wind Chill: 75°   Ceiling: Unl
Heat Index: 75°   Visibility: 10mi
Dew Point: 38°   Wind: 9mph
Humidity: 26%   Direction: 170°S
Pressure: 30.22"   Gusts: NA
Location:  26.2167°N, 98.325°W
Report Text: KMFE 262053Z 17008KT 10SM CLR 24/03 A3022 RMK AO2 SLP231 T02390033 56027
Loading
Personal Weather Stations






























Interactive Weather Map New forecast layout! Learn more

10-Day Weather Forecast

Advertisements
Track Severe Weather on mobile